sensor_id;sensor_type;location;lat;lon;timestamp;pressure;altitude;pressure_sealevel;temperature;humidity
31761;BME280;18335;51.486;7.562;2022-11-15T00:00:10;99552.94;;;10.39;100.00
31761;BME280;18335;51.486;7.562;2022-11-15T00:02:57;99554.50;;;10.33;100.00
31761;BME280;18335;51.486;7.562;2022-11-15T00:05:42;99569.66;;;10.36;100.00
31761;BME280;18335;51.486;7.562;2022-11-15T00:08:29;99552.38;;;10.43;100.00
31761;BME280;18335;51.486;7.562;2022-11-15T00:11:14;99547.91;;;10.50;100.00
31761;BME280;18335;51.486;7.562;2022-11-15T00:13:59;99545.22;;;10.42;100.00
31761;BME280;18335;51.486;7.562;2022-11-15T00:16:45;99547.41;;;10.47;100.00
31761;BME280;18335;51.486;7.562;2022-11-15T00:19:32;99545.28;;;10.57;100.00
31761;BME280;18335;51.486;7.562;2022-11-15T00:22:17;99544.25;;;10.58;100.00
31761;BME280;18335;51.486;7.562;2022-11-15T00:25:04;99542.13;;;10.68;100.00
31761;BME280;18335;51.486;7.562;2022-11-15T00:27:49;99542.25;;;10.75;100.00
31761;BME280;18335;51.486;7.562;2022-11-15T00:30:35;99538.31;;;10.77;100.00
31761;BME280;18335;51.486;7.562;2022-11-15T00:33:21;99545.00;;;10.89;100.00
31761;BME280;18335;51.486;7.562;2022-11-15T00:36:09;99532.38;;;10.88;100.00
31761;BME280;18335;51.486;7.562;2022-11-15T00:38:54;99531.56;;;11.02;100.00
31761;BME280;18335;51.486;7.562;2022-11-15T00:41:40;99536.75;;;10.97;100.00
31761;BME280;18335;51.486;7.562;2022-11-15T00:44:25;99544.03;;;11.05;100.00
31761;BME280;18335;51.486;7.562;2022-11-15T00:47:10;99538.94;;;11.17;100.00
31761;BME280;18335;51.486;7.562;2022-11-15T00:49:55;99535.66;;;11.21;100.00
31761;BME280;18335;51.486;7.562;2022-11-15T00:52:42;99534.25;;;11.25;100.00
31761;BME280;18335;51.486;7.562;2022-11-15T00:55:27;99540.19;;;11.29;100.00
31761;BME280;18335;51.486;7.562;2022-11-15T00:58:12;99523.06;;;11.35;100.00
31761;BME280;18335;51.486;7.562;2022-11-15T01:01:05;99527.94;;;11.39;100.00
31761;BME280;18335;51.486;7.562;2022-11-15T01:03:51;99536.59;;;11.43;100.00
31761;BME280;18335;51.486;7.562;2022-11-15T01:06:36;99521.81;;;11.37;100.00
31761;BME280;18335;51.486;7.562;2022-11-15T01:09:22;99527.75;;;11.41;100.00
31761;BME280;18335;51.486;7.562;2022-11-15T01:12:08;99523.88;;;11.50;100.00
31761;BME280;18335;51.486;7.562;2022-11-15T01:14:53;99527.19;;;11.60;100.00
31761;BME280;18335;51.486;7.562;2022-11-15T01:17:38;99522.31;;;11.70;100.00
31761;BME280;18335;51.486;7.562;2022-11-15T01:20:24;99516.34;;;11.66;100.00
31761;BME280;18335;51.486;7.562;2022-11-15T01:23:09;99521.34;;;11.63;100.00
31761;BME280;18335;51.486;7.562;2022-11-15T01:25:59;99517.56;;;11.64;100.00
31761;BME280;18335;51.486;7.562;2022-11-15T01:28:45;99525.69;;;11.72;100.00
31761;BME280;18335;51.486;7.562;2022-11-15T01:31:30;99521.47;;;11.70;100.00
31761;BME280;18335;51.486;7.562;2022-11-15T01:34:15;99522.78;;;11.74;100.00
31761;BME280;18335;51.486;7.562;2022-11-15T01:37:01;99518.53;;;11.71;100.00
31761;BME280;18335;51.486;7.562;2022-11-15T01:39:46;99516.25;;;11.75;100.00
31761;BME280;18335;51.486;7.562;2022-11-15T01:42:32;99525.13;;;11.77;100.00
31761;BME280;18335;51.486;7.562;2022-11-15T01:45:18;99505.53;;;11.73;100.00
31761;BME280;18335;51.486;7.562;2022-11-15T01:48:04;99507.59;;;11.71;100.00
31761;BME280;18335;51.486;7.562;2022-11-15T01:50:50;99503.66;;;11.74;100.00
31761;BME280;18335;51.486;7.562;2022-11-15T01:53:38;99502.47;;;11.83;100.00
31761;BME280;18335;51.486;7.562;2022-11-15T01:56:27;99497.50;;;11.72;100.00
31761;BME280;18335;51.486;7.562;2022-11-15T01:59:15;99489.31;;;11.72;100.00
31761;BME280;18335;51.486;7.562;2022-11-15T02:02:00;99488.16;;;11.81;100.00
31761;BME280;18335;51.486;7.562;2022-11-15T02:04:46;99488.03;;;11.89;100.00
31761;BME280;18335;51.486;7.562;2022-11-15T02:07:34;99483.81;;;11.86;100.00
31761;BME280;18335;51.486;7.562;2022-11-15T02:10:22;99479.59;;;11.69;100.00
31761;BME280;18335;51.486;7.562;2022-11-15T02:13:07;99482.31;;;11.69;100.00
31761;BME280;18335;51.486;7.562;2022-11-15T02:16:00;99480.59;;;11.68;100.00
31761;BME280;18335;51.486;7.562;2022-11-15T02:18:52;99486.47;;;11.65;100.00
31761;BME280;18335;51.486;7.562;2022-11-15T02:21:44;99473.19;;;11.62;100.00
31761;BME280;18335;51.486;7.562;2022-11-15T02:25:01;99466.81;;;11.70;100.00
31761;BME280;18335;51.486;7.562;2022-11-15T02:28:06;99470.91;;;11.65;100.00
31761;BME280;18335;51.486;7.562;2022-11-15T02:31:00;99472.75;;;11.73;100.00
31761;BME280;18335;51.486;7.562;2022-11-15T02:33:53;99476.13;;;11.75;100.00
31761;BME280;18335;51.486;7.562;2022-11-15T02:36:46;99473.25;;;11.83;100.00
31761;BME280;18335;51.486;7.562;2022-11-15T02:39:37;99473.25;;;11.83;100.00
31761;BME280;18335;51.486;7.562;2022-11-15T02:42:29;99471.59;;;11.82;100.00
31761;BME280;18335;51.486;7.562;2022-11-15T02:45:37;99462.44;;;11.75;100.00
31761;BME280;18335;51.486;7.562;2022-11-15T02:48:26;99468.78;;;11.76;100.00
31761;BME280;18335;51.486;7.562;2022-11-15T02:51:12;99476.00;;;11.68;100.00
31761;BME280;18335;51.486;7.562;2022-11-15T02:53:58;99462.63;;;11.59;100.00
31761;BME280;18335;51.486;7.562;2022-11-15T02:56:45;99459.84;;;11.52;100.00
31761;BME280;18335;51.486;7.562;2022-11-15T02:59:48;99460.28;;;11.41;100.00
31761;BME280;18335;51.486;7.562;2022-11-15T03:05:51;99465.59;;;11.43;100.00
31761;BME280;18335;51.486;7.562;2022-11-15T03:08:47;99464.75;;;11.42;100.00
31761;BME280;18335;51.486;7.562;2022-11-15T03:11:39;99459.63;;;11.54;100.00
31761;BME280;18335;51.486;7.562;2022-11-15T03:14:29;99463.22;;;11.54;100.00
31761;BME280;18335;51.486;7.562;2022-11-15T03:17:22;99457.84;;;11.61;100.00
31761;BME280;18335;51.486;7.562;2022-11-15T03:20:10;99455.56;;;11.64;100.00
31761;BME280;18335;51.486;7.562;2022-11-15T03:23:02;99464.22;;;11.68;100.00
31761;BME280;18335;51.486;7.562;2022-11-15T03:25:50;99462.44;;;11.75;100.00
31761;BME280;18335;51.486;7.562;2022-11-15T03:28:38;99463.47;;;11.74;100.00
31761;BME280;18335;51.486;7.562;2022-11-15T03:31:29;99461.81;;;11.73;100.00
31761;BME280;18335;51.486;7.562;2022-11-15T03:34:36;99464.34;;;11.75;100.00
31761;BME280;18335;51.486;7.562;2022-11-15T03:37:29;99461.94;;;11.86;100.00
31761;BME280;18335;51.486;7.562;2022-11-15T03:40:17;99456.09;;;11.89;100.00
31761;BME280;18335;51.486;7.562;2022-11-15T03:43:10;99460.41;;;11.98;100.00
31761;BME280;18335;51.486;7.562;2022-11-15T03:46:02;99465.09;;;12.04;100.00
31761;BME280;18335;51.486;7.562;2022-11-15T03:48:51;99471.63;;;12.03;100.00
31761;BME280;18335;51.486;7.562;2022-11-15T03:51:38;99476.25;;;12.03;100.00
31761;BME280;18335;51.486;7.562;2022-11-15T03:54:23;99472.66;;;12.02;100.00
31761;BME280;18335;51.486;7.562;2022-11-15T03:57:10;99463.03;;;12.06;100.00
31761;BME280;18335;51.486;7.562;2022-11-15T03:59:55;99469.63;;;12.12;100.00
31761;BME280;18335;51.486;7.562;2022-11-15T04:02:40;99452.75;;;12.08;100.00
31761;BME280;18335;51.486;7.562;2022-11-15T04:05:26;99450.47;;;12.12;100.00
31761;BME280;18335;51.486;7.562;2022-11-15T04:08:11;99436.50;;;12.07;100.00
31761;BME280;18335;51.486;7.562;2022-11-15T04:10:56;99443.50;;;12.09;100.00
31761;BME280;18335;51.486;7.562;2022-11-15T04:13:43;99432.81;;;11.93;100.00
31761;BME280;18335;51.486;7.562;2022-11-15T04:16:28;99422.81;;;12.00;100.00
31761;BME280;18335;51.486;7.562;2022-11-15T04:19:14;99427.22;;;12.01;100.00
31761;BME280;18335;51.486;7.562;2022-11-15T04:22:31;99420.88;;;12.01;100.00
31761;BME280;18335;51.486;7.562;2022-11-15T04:25:34;99423.75;;;11.93;100.00
31761;BME280;18335;51.486;7.562;2022-11-15T04:28:20;99426.56;;;11.99;100.00
31761;BME280;18335;51.486;7.562;2022-11-15T04:31:07;99430.41;;;12.05;100.00
31761;BME280;18335;51.486;7.562;2022-11-15T04:33:52;99424.47;;;12.01;100.00
31761;BME280;18335;51.486;7.562;2022-11-15T04:36:38;99429.38;;;12.06;100.00
31761;BME280;18335;51.486;7.562;2022-11-15T04:39:42;99426.44;;;12.07;100.00
31761;BME280;18335;51.486;7.562;2022-11-15T04:42:27;99427.50;;;12.06;100.00
31761;BME280;18335;51.486;7.562;2022-11-15T04:45:12;99430.31;;;11.98;100.00
31761;BME280;18335;51.486;7.562;2022-11-15T04:47:59;99432.28;;;12.04;100.00
31761;BME280;18335;51.486;7.562;2022-11-15T04:50:44;99432.28;;;12.04;100.00
31761;BME280;18335;51.486;7.562;2022-11-15T04:53:29;99440.09;;;12.07;100.00
31761;BME280;18335;51.486;7.562;2022-11-15T04:56:14;99431.13;;;12.13;100.00
31761;BME280;18335;51.486;7.562;2022-11-15T04:59:00;99437.25;;;12.15;100.00
31761;BME280;18335;51.486;7.562;2022-11-15T05:01:45;99429.31;;;12.20;100.00
31761;BME280;18335;51.486;7.562;2022-11-15T05:04:31;99433.47;;;12.16;100.00
31761;BME280;18335;51.486;7.562;2022-11-15T05:07:16;99433.31;;;12.25;100.00
31761;BME280;18335;51.486;7.562;2022-11-15T05:10:01;99430.00;;;12.29;100.00
31761;BME280;18335;51.486;7.562;2022-11-15T05:12:46;99421.34;;;12.26;100.00
31761;BME280;18335;51.486;7.562;2022-11-15T05:15:31;99423.59;;;12.15;100.00
31761;BME280;18335;51.486;7.562;2022-11-15T05:18:16;99413.28;;;12.17;100.00
31761;BME280;18335;51.486;7.562;2022-11-15T05:21:05;99424.78;;;12.13;100.00
31761;BME280;18335;51.486;7.562;2022-11-15T05:23:50;99430.09;;;12.14;100.00
31761;BME280;18335;51.486;7.562;2022-11-15T05:26:35;99425.00;;;12.11;100.00
31761;BME280;18335;51.486;7.562;2022-11-15T05:29:20;99421.34;;;12.04;100.00
31761;BME280;18335;51.486;7.562;2022-11-15T05:32:08;99428.59;;;12.12;100.00
31761;BME280;18335;51.486;7.562;2022-11-15T05:34:54;99429.44;;;12.12;100.00
31761;BME280;18335;51.486;7.562;2022-11-15T05:37:41;99427.81;;;12.18;100.00
31761;BME280;18335;51.486;7.562;2022-11-15T05:40:26;99428.44;;;12.20;100.00
31761;BME280;18335;51.486;7.562;2022-11-15T05:43:12;99424.28;;;12.24;100.00
31761;BME280;18335;51.486;7.562;2022-11-15T05:45:58;99421.59;;;12.31;100.00
31761;BME280;18335;51.486;7.562;2022-11-15T05:48:46;99420.03;;;12.21;100.00
31761;BME280;18335;51.486;7.562;2022-11-15T05:51:33;99420.25;;;12.20;100.00
31761;BME280;18335;51.486;7.562;2022-11-15T05:54:21;99419.41;;;12.19;100.00
31761;BME280;18335;51.486;7.562;2022-11-15T05:57:08;99405.00;;;12.11;100.00
31761;BME280;18335;51.486;7.562;2022-11-15T05:59:54;99415.09;;;12.10;100.00
31761;BME280;18335;51.486;7.562;2022-11-15T06:02:40;99406.78;;;11.97;100.00
31761;BME280;18335;51.486;7.562;2022-11-15T06:05:25;99403.84;;;11.99;100.00
31761;BME280;18335;51.486;7.562;2022-11-15T06:08:10;99410.41;;;12.04;100.00
31761;BME280;18335;51.486;7.562;2022-11-15T06:11:03;99405.25;;;11.95;100.00
31761;BME280;18335;51.486;7.562;2022-11-15T06:13:48;99413.47;;;11.95;100.00
31761;BME280;18335;51.486;7.562;2022-11-15T06:16:33;99414.84;;;11.84;100.00
31761;BME280;18335;51.486;7.562;2022-11-15T06:19:19;99414.75;;;11.78;100.00
31761;BME280;18335;51.486;7.562;2022-11-15T06:22:04;99424.06;;;11.83;100.00
31761;BME280;18335;51.486;7.562;2022-11-15T06:24:49;99420.69;;;11.81;100.00
31761;BME280;18335;51.486;7.562;2022-11-15T06:27:35;99432.66;;;11.80;100.00
31761;BME280;18335;51.486;7.562;2022-11-15T06:30:21;99436.22;;;11.81;100.00
31761;BME280;18335;51.486;7.562;2022-11-15T06:33:06;99441.31;;;11.84;100.00
31761;BME280;18335;51.486;7.562;2022-11-15T06:35:52;99438.91;;;11.95;100.00
31761;BME280;18335;51.486;7.562;2022-11-15T06:38:37;99446.72;;;11.98;100.00
31761;BME280;18335;51.486;7.562;2022-11-15T06:41:23;99447.44;;;12.07;100.00
31761;BME280;18335;51.486;7.562;2022-11-15T06:44:09;99453.00;;;12.13;100.00
31761;BME280;18335;51.486;7.562;2022-11-15T06:46:54;99453.66;;;12.15;100.00
31761;BME280;18335;51.486;7.562;2022-11-15T06:49:39;99457.69;;;12.19;100.00
31761;BME280;18335;51.486;7.562;2022-11-15T06:52:25;99463.69;;;12.30;100.00
31761;BME280;18335;51.486;7.562;2022-11-15T06:55:10;99472.28;;;12.27;100.00
31761;BME280;18335;51.486;7.562;2022-11-15T06:57:55;99464.66;;;12.22;100.00
31761;BME280;18335;51.486;7.562;2022-11-15T07:00:42;99474.25;;;12.33;100.00
31761;BME280;18335;51.486;7.562;2022-11-15T07:03:27;99472.53;;;12.32;100.00
31761;BME280;18335;51.486;7.562;2022-11-15T07:06:13;99471.75;;;12.38;100.00
31761;BME280;18335;51.486;7.562;2022-11-15T07:08:58;99477.47;;;12.43;100.00
31761;BME280;18335;51.486;7.562;2022-11-15T07:11:43;99483.34;;;12.40;100.00
31761;BME280;18335;51.486;7.562;2022-11-15T07:14:28;99476.69;;;12.49;100.00
31761;BME280;18335;51.486;7.562;2022-11-15T07:17:14;99485.97;;;12.48;100.00
31761;BME280;18335;51.486;7.562;2022-11-15T07:19:59;99492.72;;;12.52;100.00
31761;BME280;18335;51.486;7.562;2022-11-15T07:22:44;99484.25;;;12.47;100.00
31761;BME280;18335;51.486;7.562;2022-11-15T07:25:30;99488.88;;;12.46;100.00
31761;BME280;18335;51.486;7.562;2022-11-15T07:28:16;99492.31;;;12.34;100.00
31761;BME280;18335;51.486;7.562;2022-11-15T07:31:02;99491.03;;;12.30;100.00
31761;BME280;18335;51.486;7.562;2022-11-15T07:33:49;99501.59;;;12.33;100.00
31761;BME280;18335;51.486;7.562;2022-11-15T07:36:34;99501.44;;;12.19;100.00
31761;BME280;18335;51.486;7.562;2022-11-15T07:39:19;99495.78;;;12.21;100.00
31761;BME280;18335;51.486;7.562;2022-11-15T07:42:05;99500.53;;;12.12;100.00
31761;BME280;18335;51.486;7.562;2022-11-15T07:45:08;99505.63;;;12.01;100.00
31761;BME280;18335;51.486;7.562;2022-11-15T07:47:54;99510.81;;;12.10;100.00
31761;BME280;18335;51.486;7.562;2022-11-15T07:50:42;99499.41;;;12.07;100.00
31761;BME280;18335;51.486;7.562;2022-11-15T07:53:27;99501.22;;;12.00;100.00
31761;BME280;18335;51.486;7.562;2022-11-15T07:56:13;99513.06;;;12.07;100.00
31761;BME280;18335;51.486;7.562;2022-11-15T07:58:58;99515.63;;;12.08;100.00
31761;BME280;18335;51.486;7.562;2022-11-15T08:01:44;99519.78;;;12.04;100.00
31761;BME280;18335;51.486;7.562;2022-11-15T08:04:29;99518.25;;;12.16;100.00
31761;BME280;18335;51.486;7.562;2022-11-15T08:07:15;99520.63;;;12.05;100.00
31761;BME280;18335;51.486;7.562;2022-11-15T08:10:01;99516.41;;;12.02;100.00
31761;BME280;18335;51.486;7.562;2022-11-15T08:12:48;99513.66;;;12.02;100.00
31761;BME280;18335;51.486;7.562;2022-11-15T08:15:34;99520.56;;;11.98;100.00
31761;BME280;18335;51.486;7.562;2022-11-15T08:18:19;99505.16;;;12.12;100.00
31761;BME280;18335;51.486;7.562;2022-11-15T08:21:05;99496.34;;;12.16;100.00
31761;BME280;18335;51.486;7.562;2022-11-15T08:23:51;99509.91;;;12.25;100.00
31761;BME280;18335;51.486;7.562;2022-11-15T08:26:36;99508.22;;;12.24;100.00
31761;BME280;18335;51.486;7.562;2022-11-15T08:29:21;99505.28;;;12.25;100.00
31761;BME280;18335;51.486;7.562;2022-11-15T08:32:07;99510.06;;;12.38;100.00
31761;BME280;18335;51.486;7.562;2022-11-15T08:34:52;99510.69;;;12.40;100.00
31761;BME280;18335;51.486;7.562;2022-11-15T08:37:38;99509.22;;;12.37;100.00
31761;BME280;18335;51.486;7.562;2022-11-15T08:40:24;99512.22;;;12.42;100.00
31761;BME280;18335;51.486;7.562;2022-11-15T08:43:10;99510.44;;;12.35;100.00
31761;BME280;18335;51.486;7.562;2022-11-15T08:45:56;99504.44;;;12.46;100.00
31761;BME280;18335;51.486;7.562;2022-11-15T08:48:41;99510.59;;;12.48;100.00
31761;BME280;18335;51.486;7.562;2022-11-15T08:51:26;99500.94;;;12.52;100.00
31761;BME280;18335;51.486;7.562;2022-11-15T08:54:11;99501.31;;;12.49;100.00
31761;BME280;18335;51.486;7.562;2022-11-15T08:56:58;99508.50;;;12.50;100.00
31761;BME280;18335;51.486;7.562;2022-11-15T08:59:43;99504.38;;;12.60;100.00
31761;BME280;18335;51.486;7.562;2022-11-15T09:02:28;99503.16;;;12.63;100.00
31761;BME280;18335;51.486;7.562;2022-11-15T09:05:14;99493.88;;;12.64;100.00
31761;BME280;18335;51.486;7.562;2022-11-15T09:08:00;99498.97;;;12.67;100.00
31761;BME280;18335;51.486;7.562;2022-11-15T09:10:45;99496.81;;;12.84;100.00
31761;BME280;18335;51.486;7.562;2022-11-15T09:13:32;99492.59;;;12.81;100.00
31761;BME280;18335;51.486;7.562;2022-11-15T09:16:17;99490.53;;;12.90;100.00
31761;BME280;18335;51.486;7.562;2022-11-15T09:19:02;99489.69;;;12.89;100.00
31761;BME280;18335;51.486;7.562;2022-11-15T09:21:48;99488.66;;;12.90;100.00
31761;BME280;18335;51.486;7.562;2022-11-15T09:24:33;99492.88;;;12.93;100.00
31761;BME280;18335;51.486;7.562;2022-11-15T09:27:18;99492.28;;;12.97;100.00
31761;BME280;18335;51.486;7.562;2022-11-15T09:30:05;99482.13;;;12.91;100.00
31761;BME280;18335;51.486;7.562;2022-11-15T09:32:51;99480.28;;;12.98;100.00
31761;BME280;18335;51.486;7.562;2022-11-15T09:35:36;99487.00;;;12.96;100.00
31761;BME280;18335;51.486;7.562;2022-11-15T09:38:21;99483.25;;;13.03;100.00
31761;BME280;18335;51.486;7.562;2022-11-15T09:44:51;99473.25;;;12.89;100.00
31761;BME280;18335;51.486;7.562;2022-11-15T09:47:56;99472.69;;;13.00;100.00
31761;BME280;18335;51.486;7.562;2022-11-15T09:50:50;99469.31;;;12.98;100.00
31761;BME280;18335;51.486;7.562;2022-11-15T09:53:24;99468.03;;;12.94;100.00
31761;BME280;18335;51.486;7.562;2022-11-15T09:55:58;99466.81;;;13.03;100.00
31761;BME280;18335;51.486;7.562;2022-11-15T09:58:31;99477.34;;;13.00;100.00
31761;BME280;18335;51.486;7.562;2022-11-15T10:01:03;99475.03;;;13.03;100.00
31761;BME280;18335;51.486;7.562;2022-11-15T10:03:36;99480.34;;;13.05;100.00
31761;BME280;18335;51.486;7.562;2022-11-15T10:06:05;99470.59;;;12.96;100.00
31761;BME280;18335;51.486;7.562;2022-11-15T10:08:50;99466.31;;;12.93;100.00
31761;BME280;18335;51.486;7.562;2022-11-15T10:11:20;99467.28;;;13.07;100.00
31761;BME280;18335;51.486;7.562;2022-11-15T10:13:49;99469.69;;;13.16;100.00
31761;BME280;18335;51.486;7.562;2022-11-15T10:16:28;99460.91;;;13.27;100.00
31761;BME280;18335;51.486;7.562;2022-11-15T10:19:04;99451.47;;;13.37;100.00
31761;BME280;18335;51.486;7.562;2022-11-15T10:21:39;99451.44;;;13.30;100.00
31761;BME280;18335;51.486;7.562;2022-11-15T10:24:11;99451.00;;;13.26;100.00
31761;BME280;18335;51.486;7.562;2022-11-15T10:26:38;99443.03;;;13.32;100.00
31761;BME280;18335;51.486;7.562;2022-11-15T10:29:05;99432.56;;;13.48;100.00
31761;BME280;18335;51.486;7.562;2022-11-15T10:31:32;99428.25;;;13.32;100.00
31761;BME280;18335;51.486;7.562;2022-11-15T10:34:10;99429.88;;;13.20;100.00
31761;BME280;18335;51.486;7.562;2022-11-15T10:36:43;99417.88;;;13.21;100.00
31761;BME280;18335;51.486;7.562;2022-11-15T10:39:12;99419.19;;;13.25;100.00
31761;BME280;18335;51.486;7.562;2022-11-15T10:41:41;99404.19;;;13.21;100.00
31761;BME280;18335;51.486;7.562;2022-11-15T10:44:17;99401.31;;;13.36;100.00
31761;BME280;18335;51.486;7.562;2022-11-15T10:46:48;99389.91;;;13.32;100.00
31761;BME280;18335;51.486;7.562;2022-11-15T10:49:18;99391.13;;;13.23;100.00
31761;BME280;18335;51.486;7.562;2022-11-15T10:51:48;99392.19;;;13.22;100.00
31761;BME280;18335;51.486;7.562;2022-11-15T10:54:22;99384.88;;;13.36;100.00
31761;BME280;18335;51.486;7.562;2022-11-15T10:56:50;99369.75;;;13.47;100.00
31761;BME280;18335;51.486;7.562;2022-11-15T10:59:23;99375.97;;;13.27;100.00
31761;BME280;18335;51.486;7.562;2022-11-15T11:01:52;99382.75;;;13.38;100.00
31761;BME280;18335;51.486;7.562;2022-11-15T11:04:20;99371.41;;;13.48;100.00
31761;BME280;18335;51.486;7.562;2022-11-15T11:06:49;99373.09;;;13.42;100.00
31761;BME280;18335;51.486;7.562;2022-11-15T11:09:30;99369.72;;;13.40;100.00
31761;BME280;18335;51.486;7.562;2022-11-15T11:11:59;99378.13;;;13.39;100.00
31761;BME280;18335;51.486;7.562;2022-11-15T11:14:28;99362.09;;;13.36;100.00
31761;BME280;18335;51.486;7.562;2022-11-15T11:17:02;99368.44;;;13.36;100.00
31761;BME280;18335;51.486;7.562;2022-11-15T11:19:46;99355.59;;;13.43;100.00
31761;BME280;18335;51.486;7.562;2022-11-15T11:22:21;99355.63;;;13.50;100.00
31761;BME280;18335;51.486;7.562;2022-11-15T11:24:59;99359.63;;;13.54;100.00
31761;BME280;18335;51.486;7.562;2022-11-15T11:27:36;99358.97;;;13.45;100.00
31761;BME280;18335;51.486;7.562;2022-11-15T11:30:09;99349.75;;;13.53;100.00
31761;BME280;18335;51.486;7.562;2022-11-15T11:33:09;99352.31;;;13.67;100.00
31761;BME280;18335;51.486;7.562;2022-11-15T11:35:48;99342.38;;;13.66;100.00
31761;BME280;18335;51.486;7.562;2022-11-15T11:38:27;99335.44;;;13.77;100.00
31761;BME280;18335;51.486;7.562;2022-11-15T11:41:05;99333.75;;;13.69;100.00
31761;BME280;18335;51.486;7.562;2022-11-15T11:43:38;99323.66;;;13.76;100.00
31761;BME280;18335;51.486;7.562;2022-11-15T11:46:19;99325.97;;;13.73;100.00
31761;BME280;18335;51.486;7.562;2022-11-15T11:48:50;99326.59;;;13.75;100.00
31761;BME280;18335;51.486;7.562;2022-11-15T11:51:23;99313.09;;;13.80;100.00
31761;BME280;18335;51.486;7.562;2022-11-15T11:53:54;99308.69;;;13.79;100.00
31761;BME280;18335;51.486;7.562;2022-11-15T11:56:26;99312.25;;;13.73;100.00
31761;BME280;18335;51.486;7.562;2022-11-15T11:58:56;99306.53;;;13.68;100.00
31761;BME280;18335;51.486;7.562;2022-11-15T12:01:26;99300.22;;;13.61;100.00
31761;BME280;18335;51.486;7.562;2022-11-15T12:03:57;99292.19;;;13.66;100.00
31761;BME280;18335;51.486;7.562;2022-11-15T12:06:31;99294.09;;;13.72;100.00
31761;BME280;18335;51.486;7.562;2022-11-15T12:09:04;99294.13;;;13.85;100.00
31761;BME280;18335;51.486;7.562;2022-11-15T12:11:47;99293.50;;;13.90;100.00
31761;BME280;18335;51.486;7.562;2022-11-15T12:14:24;99292.47;;;13.97;100.00
31761;BME280;18335;51.486;7.562;2022-11-15T12:16:53;99286.75;;;14.05;100.00
31761;BME280;18335;51.486;7.562;2022-11-15T12:19:20;99286.56;;;14.00;100.00
31761;BME280;18335;51.486;7.562;2022-11-15T12:21:54;99289.06;;;14.02;100.00
31761;BME280;18335;51.486;7.562;2022-11-15T12:24:24;99297.94;;;13.97;100.00
31761;BME280;18335;51.486;7.562;2022-11-15T12:26:56;99293.06;;;13.79;100.00
31761;BME280;18335;51.486;7.562;2022-11-15T12:29:28;99286.50;;;13.74;100.00
31761;BME280;18335;51.486;7.562;2022-11-15T12:31:58;99281.88;;;13.81;100.00
31761;BME280;18335;51.486;7.562;2022-11-15T12:34:36;99290.31;;;13.66;100.00
31761;BME280;18335;51.486;7.562;2022-11-15T12:37:46;99283.13;;;13.72;100.00
31761;BME280;18335;51.486;7.562;2022-11-15T12:40:20;99289.69;;;13.84;100.00
31761;BME280;18335;51.486;7.562;2022-11-15T12:45:43;99280.00;;;13.88;100.00
31761;BME280;18335;51.486;7.562;2022-11-15T12:54:55;99263.53;;;13.81;100.00
31761;BME280;18335;51.486;7.562;2022-11-15T12:57:36;99266.72;;;13.85;100.00
31761;BME280;18335;51.486;7.562;2022-11-15T13:03:26;99258.03;;;13.75;100.00
31761;BME280;18335;51.486;7.562;2022-11-15T13:08:59;99239.09;;;13.73;100.00
31761;BME280;18335;51.486;7.562;2022-11-15T13:11:48;99227.25;;;13.66;100.00
31761;BME280;18335;51.486;7.562;2022-11-15T13:14:38;99227.03;;;13.55;100.00
31761;BME280;18335;51.486;7.562;2022-11-15T13:17:16;99226.84;;;13.69;100.00
31761;BME280;18335;51.486;7.562;2022-11-15T13:19:45;99226.19;;;13.74;100.00
31761;BME280;18335;51.486;7.562;2022-11-15T13:22:12;99217.75;;;13.69;100.00
31761;BME280;18335;51.486;7.562;2022-11-15T13:24:56;99217.75;;;13.69;100.00
31761;BME280;18335;51.486;7.562;2022-11-15T13:27:25;99203.63;;;13.52;100.00
31761;BME280;18335;51.486;7.562;2022-11-15T13:29:52;99203.22;;;13.49;100.00
31761;BME280;18335;51.486;7.562;2022-11-15T13:32:19;99203.00;;;13.57;100.00
31761;BME280;18335;51.486;7.562;2022-11-15T13:34:48;99196.03;;;13.54;100.00
31761;BME280;18335;51.486;7.562;2022-11-15T13:37:29;99196.88;;;13.55;100.00
31761;BME280;18335;51.486;7.562;2022-11-15T13:40:16;99191.84;;;13.52;100.00
31761;BME280;18335;51.486;7.562;2022-11-15T13:42:46;99182.34;;;13.54;100.00
31761;BME280;18335;51.486;7.562;2022-11-15T13:45:15;99187.63;;;13.49;100.00
31761;BME280;18335;51.486;7.562;2022-11-15T13:47:42;99181.72;;;13.52;100.00
31761;BME280;18335;51.486;7.562;2022-11-15T13:50:10;99181.06;;;13.50;100.00
31761;BME280;18335;51.486;7.562;2022-11-15T13:52:38;99181.72;;;13.52;100.00
31761;BME280;18335;51.486;7.562;2022-11-15T13:55:11;99181.06;;;13.57;100.00
31761;BME280;18335;51.486;7.562;2022-11-15T13:57:41;99172.44;;;13.47;100.00
31761;BME280;18335;51.486;7.562;2022-11-15T14:00:29;99172.44;;;13.60;100.00
31761;BME280;18335;51.486;7.562;2022-11-15T14:02:57;99172.00;;;13.69;100.00
31761;BME280;18335;51.486;7.562;2022-11-15T14:05:31;99165.91;;;13.61;100.00
31761;BME280;18335;51.486;7.562;2022-11-15T14:08:01;99164.00;;;13.61;100.00
31761;BME280;18335;51.486;7.562;2022-11-15T14:10:30;99171.59;;;13.53;100.00
31761;BME280;18335;51.486;7.562;2022-11-15T14:12:58;99157.66;;;13.41;100.00
31761;BME280;18335;51.486;7.562;2022-11-15T14:15:30;99151.78;;;13.38;100.00
31761;BME280;18335;51.486;7.562;2022-11-15T14:17:58;99150.72;;;13.39;100.00
31761;BME280;18335;51.486;7.562;2022-11-15T14:20:34;99149.22;;;13.36;100.00
31761;BME280;18335;51.486;7.562;2022-11-15T14:23:04;99142.91;;;13.36;100.00
31761;BME280;18335;51.486;7.562;2022-11-15T14:25:32;99139.13;;;13.37;100.00
31761;BME280;18335;51.486;7.562;2022-11-15T14:28:12;99125.84;;;13.47;100.00
31761;BME280;18335;51.486;7.562;2022-11-15T14:30:42;99134.91;;;13.54;100.00
31761;BME280;18335;51.486;7.562;2022-11-15T14:33:19;99124.16;;;13.52;100.00